Terminal Aerodrome Forecast
Issued by NWS St Louis, MO

Home | Current Version | Previous Version | Text Only | Print | Product List | Glossary On
Versions: 1 2 3 4 5 6 7 8 9 10 11 12 13 14 15 16 17 18 19 20 21 22 23 24 25 26 27 28
000
FTUS43 KLSX 031000 AAA
TAFSTL
TAF AMD
KSTL 031016Z 0310/0412 VRB05KT P6SM BKN016
     FM031400 15005KT P6SM SCT020
     FM031600 15007KT P6SM SCT040
     FM040200 13004KT P6SM SCT120=

USA.gov is the U.S. government's official web portal to all federal, state and local government web resources and services.